sensor_id;sensor_type;location;lat;lon;timestamp;temperature;humidity
51801;DHT22;37855;53.204;6.568;2024-01-25T00:01:59;7.50;73.70
51801;DHT22;37855;53.204;6.568;2024-01-25T00:04:24;7.50;73.60
51801;DHT22;37855;53.204;6.568;2024-01-25T00:06:51;7.50;73.60
51801;DHT22;37855;53.204;6.568;2024-01-25T00:09:17;7.40;73.70
51801;DHT22;37855;53.204;6.568;2024-01-25T00:11:44;7.40;73.70
51801;DHT22;37855;53.204;6.568;2024-01-25T00:14:10;7.40;73.90
51801;DHT22;37855;53.204;6.568;2024-01-25T00:16:35;7.30;74.00
51801;DHT22;37855;53.204;6.568;2024-01-25T00:19:04;7.30;74.00
51801;DHT22;37855;53.204;6.568;2024-01-25T00:21:30;7.30;74.10
51801;DHT22;37855;53.204;6.568;2024-01-25T00:23:55;7.40;74.00
51801;DHT22;37855;53.204;6.568;2024-01-25T00:26:21;7.30;74.10
51801;DHT22;37855;53.204;6.568;2024-01-25T00:28:47;7.30;74.00
51801;DHT22;37855;53.204;6.568;2024-01-25T00:31:12;7.30;74.20
51801;DHT22;37855;53.204;6.568;2024-01-25T00:33:38;7.20;74.30
51801;DHT22;37855;53.204;6.568;2024-01-25T00:36:07;7.10;74.50
51801;DHT22;37855;53.204;6.568;2024-01-25T00:38:33;7.20;74.50
51801;DHT22;37855;53.204;6.568;2024-01-25T00:40:58;7.10;74.80
51801;DHT22;37855;53.204;6.568;2024-01-25T00:43:24;7.10;74.70
51801;DHT22;37855;53.204;6.568;2024-01-25T00:45:50;7.10;74.80
51801;DHT22;37855;53.204;6.568;2024-01-25T00:48:16;7.10;75.00
51801;DHT22;37855;53.204;6.568;2024-01-25T00:50:42;7.10;74.90
51801;DHT22;37855;53.204;6.568;2024-01-25T00:53:08;7.00;75.20
51801;DHT22;37855;53.204;6.568;2024-01-25T00:55:34;7.00;75.20
51801;DHT22;37855;53.204;6.568;2024-01-25T00:58:00;7.00;75.30
51801;DHT22;37855;53.204;6.568;2024-01-25T01:00:26;7.00;75.40
51801;DHT22;37855;53.204;6.568;2024-01-25T01:02:53;7.00;75.40
51801;DHT22;37855;53.204;6.568;2024-01-25T01:05:19;6.90;75.60
51801;DHT22;37855;53.204;6.568;2024-01-25T01:07:45;6.90;75.50
51801;DHT22;37855;53.204;6.568;2024-01-25T01:10:11;6.90;75.70
51801;DHT22;37855;53.204;6.568;2024-01-25T01:12:37;6.90;75.70
51801;DHT22;37855;53.204;6.568;2024-01-25T01:15:03;6.90;75.70
51801;DHT22;37855;53.204;6.568;2024-01-25T01:17:29;6.80;75.70
51801;DHT22;37855;53.204;6.568;2024-01-25T01:19:54;6.80;75.80
51801;DHT22;37855;53.204;6.568;2024-01-25T01:22:20;6.80;75.90
51801;DHT22;37855;53.204;6.568;2024-01-25T01:24:46;6.80;75.80
51801;DHT22;37855;53.204;6.568;2024-01-25T01:27:11;6.80;76.00
51801;DHT22;37855;53.204;6.568;2024-01-25T01:29:38;6.80;75.90
51801;DHT22;37855;53.204;6.568;2024-01-25T01:32:04;6.80;75.90
51801;DHT22;37855;53.204;6.568;2024-01-25T01:34:29;6.80;76.00
51801;DHT22;37855;53.204;6.568;2024-01-25T01:36:55;6.80;76.00
51801;DHT22;37855;53.204;6.568;2024-01-25T01:39:21;6.80;75.90
51801;DHT22;37855;53.204;6.568;2024-01-25T01:41:47;6.80;76.00
51801;DHT22;37855;53.204;6.568;2024-01-25T01:44:16;6.70;76.10
51801;DHT22;37855;53.204;6.568;2024-01-25T01:46:42;6.70;76.10
51801;DHT22;37855;53.204;6.568;2024-01-25T01:49:11;6.80;76.10
51801;DHT22;37855;53.204;6.568;2024-01-25T01:51:37;6.70;76.10
51801;DHT22;37855;53.204;6.568;2024-01-25T01:54:06;6.70;76.30
51801;DHT22;37855;53.204;6.568;2024-01-25T01:56:33;6.70;76.30
51801;DHT22;37855;53.204;6.568;2024-01-25T01:59:08;6.70;76.20
51801;DHT22;37855;53.204;6.568;2024-01-25T02:01:34;6.70;76.30
51801;DHT22;37855;53.204;6.568;2024-01-25T02:03:59;6.70;76.30
51801;DHT22;37855;53.204;6.568;2024-01-25T02:06:26;6.70;76.40
51801;DHT22;37855;53.204;6.568;2024-01-25T02:08:52;6.70;76.50
51801;DHT22;37855;53.204;6.568;2024-01-25T02:11:19;6.70;76.70
51801;DHT22;37855;53.204;6.568;2024-01-25T02:13:45;6.70;76.70
51801;DHT22;37855;53.204;6.568;2024-01-25T02:16:11;6.60;76.90
51801;DHT22;37855;53.204;6.568;2024-01-25T02:18:38;6.60;76.90
51801;DHT22;37855;53.204;6.568;2024-01-25T02:21:03;6.60;76.80
51801;DHT22;37855;53.204;6.568;2024-01-25T02:23:29;6.60;77.00
51801;DHT22;37855;53.204;6.568;2024-01-25T02:25:55;6.60;77.10
51801;DHT22;37855;53.204;6.568;2024-01-25T02:28:20;6.60;77.10
51801;DHT22;37855;53.204;6.568;2024-01-25T02:30:46;6.60;77.30
51801;DHT22;37855;53.204;6.568;2024-01-25T02:33:12;6.50;77.30
51801;DHT22;37855;53.204;6.568;2024-01-25T02:35:37;6.50;77.20
51801;DHT22;37855;53.204;6.568;2024-01-25T02:38:03;6.60;77.40
51801;DHT22;37855;53.204;6.568;2024-01-25T02:40:29;6.50;77.50
51801;DHT22;37855;53.204;6.568;2024-01-25T02:42:55;6.50;77.60
51801;DHT22;37855;53.204;6.568;2024-01-25T02:45:22;6.50;77.60
51801;DHT22;37855;53.204;6.568;2024-01-25T02:47:47;6.50;77.70
51801;DHT22;37855;53.204;6.568;2024-01-25T02:50:13;6.50;77.70
51801;DHT22;37855;53.204;6.568;2024-01-25T02:52:39;6.40;77.80
51801;DHT22;37855;53.204;6.568;2024-01-25T02:55:05;6.40;77.90
51801;DHT22;37855;53.204;6.568;2024-01-25T02:57:33;6.40;77.90
51801;DHT22;37855;53.204;6.568;2024-01-25T02:59:59;6.40;77.90
51801;DHT22;37855;53.204;6.568;2024-01-25T03:02:24;6.40;78.10
51801;DHT22;37855;53.204;6.568;2024-01-25T03:04:50;6.30;78.10
51801;DHT22;37855;53.204;6.568;2024-01-25T03:07:16;6.40;78.30
51801;DHT22;37855;53.204;6.568;2024-01-25T03:09:41;6.30;78.40
51801;DHT22;37855;53.204;6.568;2024-01-25T03:12:07;6.30;78.40
51801;DHT22;37855;53.204;6.568;2024-01-25T03:14:33;6.30;78.60
51801;DHT22;37855;53.204;6.568;2024-01-25T03:16:58;6.30;78.70
51801;DHT22;37855;53.204;6.568;2024-01-25T03:19:25;6.30;78.70
51801;DHT22;37855;53.204;6.568;2024-01-25T03:21:51;6.20;78.80
51801;DHT22;37855;53.204;6.568;2024-01-25T03:24:17;6.20;78.90
51801;DHT22;37855;53.204;6.568;2024-01-25T03:26:42;6.20;79.10
51801;DHT22;37855;53.204;6.568;2024-01-25T03:29:11;6.10;79.20
51801;DHT22;37855;53.204;6.568;2024-01-25T03:31:36;6.10;79.20
51801;DHT22;37855;53.204;6.568;2024-01-25T03:34:03;6.10;79.40
51801;DHT22;37855;53.204;6.568;2024-01-25T03:36:28;6.10;79.30
51801;DHT22;37855;53.204;6.568;2024-01-25T03:38:54;6.10;79.50
51801;DHT22;37855;53.204;6.568;2024-01-25T03:41:20;6.10;79.50
51801;DHT22;37855;53.204;6.568;2024-01-25T03:43:46;6.10;79.50
51801;DHT22;37855;53.204;6.568;2024-01-25T03:46:12;6.10;79.60
51801;DHT22;37855;53.204;6.568;2024-01-25T03:48:37;6.10;79.70
51801;DHT22;37855;53.204;6.568;2024-01-25T03:51:04;6.10;79.70
51801;DHT22;37855;53.204;6.568;2024-01-25T03:53:30;6.10;79.80
51801;DHT22;37855;53.204;6.568;2024-01-25T03:55:55;6.00;79.80
51801;DHT22;37855;53.204;6.568;2024-01-25T03:58:21;6.00;79.90
51801;DHT22;37855;53.204;6.568;2024-01-25T04:00:46;6.00;80.10
51801;DHT22;37855;53.204;6.568;2024-01-25T04:03:12;6.00;80.00
51801;DHT22;37855;53.204;6.568;2024-01-25T04:05:38;6.00;80.10
51801;DHT22;37855;53.204;6.568;2024-01-25T04:08:05;5.90;80.10
51801;DHT22;37855;53.204;6.568;2024-01-25T04:10:31;5.90;80.20
51801;DHT22;37855;53.204;6.568;2024-01-25T04:12:57;5.90;80.30
51801;DHT22;37855;53.204;6.568;2024-01-25T04:15:24;5.90;80.30
51801;DHT22;37855;53.204;6.568;2024-01-25T04:17:49;5.90;80.40
51801;DHT22;37855;53.204;6.568;2024-01-25T04:20:18;5.90;80.40
51801;DHT22;37855;53.204;6.568;2024-01-25T04:22:44;5.80;80.40
51801;DHT22;37855;53.204;6.568;2024-01-25T04:25:10;5.90;80.30
51801;DHT22;37855;53.204;6.568;2024-01-25T04:27:40;5.90;80.40
51801;DHT22;37855;53.204;6.568;2024-01-25T04:30:06;5.80;80.40
51801;DHT22;37855;53.204;6.568;2024-01-25T04:32:32;5.80;80.50
51801;DHT22;37855;53.204;6.568;2024-01-25T04:34:58;5.80;80.70
51801;DHT22;37855;53.204;6.568;2024-01-25T04:37:23;5.80;80.50
51801;DHT22;37855;53.204;6.568;2024-01-25T04:39:49;5.80;80.60
51801;DHT22;37855;53.204;6.568;2024-01-25T04:42:15;5.70;80.60
51801;DHT22;37855;53.204;6.568;2024-01-25T04:44:40;5.80;80.70
51801;DHT22;37855;53.204;6.568;2024-01-25T04:47:06;5.70;80.70
51801;DHT22;37855;53.204;6.568;2024-01-25T04:49:34;5.70;80.60
51801;DHT22;37855;53.204;6.568;2024-01-25T04:51:59;5.70;80.70
51801;DHT22;37855;53.204;6.568;2024-01-25T04:54:25;5.70;80.80
51801;DHT22;37855;53.204;6.568;2024-01-25T04:56:51;5.70;80.70
51801;DHT22;37855;53.204;6.568;2024-01-25T04:59:17;5.70;80.80
51801;DHT22;37855;53.204;6.568;2024-01-25T05:01:42;5.60;80.90
51801;DHT22;37855;53.204;6.568;2024-01-25T05:04:08;5.60;81.00
51801;DHT22;37855;53.204;6.568;2024-01-25T05:06:34;5.60;80.90
51801;DHT22;37855;53.204;6.568;2024-01-25T05:08:59;5.60;81.00
51801;DHT22;37855;53.204;6.568;2024-01-25T05:11:25;5.60;81.10
51801;DHT22;37855;53.204;6.568;2024-01-25T05:13:50;5.60;81.10
51801;DHT22;37855;53.204;6.568;2024-01-25T05:16:16;5.60;81.20
51801;DHT22;37855;53.204;6.568;2024-01-25T05:18:42;5.60;81.10
51801;DHT22;37855;53.204;6.568;2024-01-25T05:21:07;5.60;81.00
51801;DHT22;37855;53.204;6.568;2024-01-25T05:23:33;5.60;81.00
51801;DHT22;37855;53.204;6.568;2024-01-25T05:25:58;5.60;81.10
51801;DHT22;37855;53.204;6.568;2024-01-25T05:28:24;5.60;81.20
51801;DHT22;37855;53.204;6.568;2024-01-25T05:30:50;5.60;81.10
51801;DHT22;37855;53.204;6.568;2024-01-25T05:33:16;5.60;81.10
51801;DHT22;37855;53.204;6.568;2024-01-25T05:35:41;5.60;81.20
51801;DHT22;37855;53.204;6.568;2024-01-25T05:38:07;5.50;81.20
51801;DHT22;37855;53.204;6.568;2024-01-25T05:40:33;5.50;81.20
51801;DHT22;37855;53.204;6.568;2024-01-25T05:42:59;5.50;81.30
51801;DHT22;37855;53.204;6.568;2024-01-25T05:45:25;5.50;81.20
51801;DHT22;37855;53.204;6.568;2024-01-25T05:47:51;5.50;81.20
51801;DHT22;37855;53.204;6.568;2024-01-25T05:50:17;5.50;81.50
51801;DHT22;37855;53.204;6.568;2024-01-25T05:52:43;5.50;81.20
51801;DHT22;37855;53.204;6.568;2024-01-25T05:55:09;5.50;81.40
51801;DHT22;37855;53.204;6.568;2024-01-25T05:57:36;5.40;81.30
51801;DHT22;37855;53.204;6.568;2024-01-25T06:00:03;5.40;81.40
51801;DHT22;37855;53.204;6.568;2024-01-25T06:02:29;5.40;81.70
51801;DHT22;37855;53.204;6.568;2024-01-25T06:04:54;5.40;81.60
51801;DHT22;37855;53.204;6.568;2024-01-25T06:07:23;5.40;81.70
51801;DHT22;37855;53.204;6.568;2024-01-25T06:09:49;5.40;81.50
51801;DHT22;37855;53.204;6.568;2024-01-25T06:12:14;5.40;81.70
51801;DHT22;37855;53.204;6.568;2024-01-25T06:14:40;5.40;81.60
51801;DHT22;37855;53.204;6.568;2024-01-25T06:17:06;5.40;81.60
51801;DHT22;37855;53.204;6.568;2024-01-25T06:19:32;5.30;81.70
51801;DHT22;37855;53.204;6.568;2024-01-25T06:21:58;5.30;81.70
51801;DHT22;37855;53.204;6.568;2024-01-25T06:24:24;5.30;81.70
51801;DHT22;37855;53.204;6.568;2024-01-25T06:26:50;5.20;81.80
51801;DHT22;37855;53.204;6.568;2024-01-25T06:29:15;5.20;81.90
51801;DHT22;37855;53.204;6.568;2024-01-25T06:31:42;5.20;81.90
51801;DHT22;37855;53.204;6.568;2024-01-25T06:34:10;5.20;81.90
51801;DHT22;37855;53.204;6.568;2024-01-25T06:36:35;5.10;81.90
51801;DHT22;37855;53.204;6.568;2024-01-25T06:39:01;5.20;82.00
51801;DHT22;37855;53.204;6.568;2024-01-25T06:41:27;5.10;81.90
51801;DHT22;37855;53.204;6.568;2024-01-25T06:43:52;5.00;81.90
51801;DHT22;37855;53.204;6.568;2024-01-25T06:46:18;5.10;82.00
51801;DHT22;37855;53.204;6.568;2024-01-25T06:48:43;5.00;82.00
51801;DHT22;37855;53.204;6.568;2024-01-25T06:51:09;5.00;82.10
51801;DHT22;37855;53.204;6.568;2024-01-25T06:53:35;5.00;82.00
51801;DHT22;37855;53.204;6.568;2024-01-25T06:56:00;5.00;81.90
51801;DHT22;37855;53.204;6.568;2024-01-25T06:58:26;5.00;82.10
51801;DHT22;37855;53.204;6.568;2024-01-25T07:00:52;5.00;81.90
51801;DHT22;37855;53.204;6.568;2024-01-25T07:03:18;5.00;81.80
51801;DHT22;37855;53.204;6.568;2024-01-25T07:05:44;5.00;81.90
51801;DHT22;37855;53.204;6.568;2024-01-25T07:08:10;5.00;81.70
51801;DHT22;37855;53.204;6.568;2024-01-25T07:10:39;5.00;81.80
51801;DHT22;37855;53.204;6.568;2024-01-25T07:13:05;5.00;81.80
51801;DHT22;37855;53.204;6.568;2024-01-25T07:15:33;5.00;81.90
51801;DHT22;37855;53.204;6.568;2024-01-25T07:17:58;5.00;81.90
51801;DHT22;37855;53.204;6.568;2024-01-25T07:20:24;5.00;81.90
51801;DHT22;37855;53.204;6.568;2024-01-25T07:22:49;4.90;82.00
51801;DHT22;37855;53.204;6.568;2024-01-25T07:25:15;4.90;82.00
51801;DHT22;37855;53.204;6.568;2024-01-25T07:27:45;4.90;82.00
51801;DHT22;37855;53.204;6.568;2024-01-25T07:30:11;4.90;82.10
51801;DHT22;37855;53.204;6.568;2024-01-25T07:32:38;4.90;82.10
51801;DHT22;37855;53.204;6.568;2024-01-25T07:35:04;4.90;82.00
51801;DHT22;37855;53.204;6.568;2024-01-25T07:37:34;4.90;82.00
51801;DHT22;37855;53.204;6.568;2024-01-25T07:39:59;4.90;82.10
51801;DHT22;37855;53.204;6.568;2024-01-25T07:42:25;4.90;82.10
51801;DHT22;37855;53.204;6.568;2024-01-25T07:44:51;4.90;82.10
51801;DHT22;37855;53.204;6.568;2024-01-25T07:47:16;4.90;82.10
51801;DHT22;37855;53.204;6.568;2024-01-25T07:49:42;4.90;82.20
51801;DHT22;37855;53.204;6.568;2024-01-25T07:52:16;4.90;82.20
51801;DHT22;37855;53.204;6.568;2024-01-25T07:54:43;4.90;82.10
51801;DHT22;37855;53.204;6.568;2024-01-25T07:57:09;4.90;82.20
51801;DHT22;37855;53.204;6.568;2024-01-25T07:59:35;4.90;82.30
51801;DHT22;37855;53.204;6.568;2024-01-25T08:02:01;4.90;82.10
51801;DHT22;37855;53.204;6.568;2024-01-25T08:04:27;4.90;82.00
51801;DHT22;37855;53.204;6.568;2024-01-25T08:06:52;4.90;82.00
51801;DHT22;37855;53.204;6.568;2024-01-25T08:09:18;4.90;82.00
51801;DHT22;37855;53.204;6.568;2024-01-25T08:11:44;5.00;82.00
51801;DHT22;37855;53.204;6.568;2024-01-25T08:14:10;5.00;81.90
51801;DHT22;37855;53.204;6.568;2024-01-25T08:16:36;4.90;81.90
51801;DHT22;37855;53.204;6.568;2024-01-25T08:19:04;4.90;82.00
51801;DHT22;37855;53.204;6.568;2024-01-25T08:21:30;4.90;82.10
51801;DHT22;37855;53.204;6.568;2024-01-25T08:23:55;5.00;82.00
51801;DHT22;37855;53.204;6.568;2024-01-25T08:26:21;4.90;82.20
51801;DHT22;37855;53.204;6.568;2024-01-25T08:28:47;5.00;82.00
51801;DHT22;37855;53.204;6.568;2024-01-25T08:31:13;5.00;82.00
51801;DHT22;37855;53.204;6.568;2024-01-25T08:33:39;5.00;82.10
51801;DHT22;37855;53.204;6.568;2024-01-25T08:36:10;5.10;82.00
51801;DHT22;37855;53.204;6.568;2024-01-25T08:38:36;5.10;82.00
51801;DHT22;37855;53.204;6.568;2024-01-25T08:41:02;5.10;81.90
51801;DHT22;37855;53.204;6.568;2024-01-25T08:43:27;5.10;82.00
51801;DHT22;37855;53.204;6.568;2024-01-25T08:45:53;5.20;81.90
51801;DHT22;37855;53.204;6.568;2024-01-25T08:48:19;5.20;81.90
51801;DHT22;37855;53.204;6.568;2024-01-25T08:50:45;5.20;82.00
51801;DHT22;37855;53.204;6.568;2024-01-25T08:53:11;5.20;82.00
51801;DHT22;37855;53.204;6.568;2024-01-25T08:55:36;5.20;82.00
51801;DHT22;37855;53.204;6.568;2024-01-25T08:58:02;5.20;82.10
51801;DHT22;37855;53.204;6.568;2024-01-25T09:00:27;5.30;82.20
51801;DHT22;37855;53.204;6.568;2024-01-25T09:02:53;5.30;82.20
51801;DHT22;37855;53.204;6.568;2024-01-25T09:05:19;5.30;82.20
51801;DHT22;37855;53.204;6.568;2024-01-25T09:07:44;5.30;82.20
51801;DHT22;37855;53.204;6.568;2024-01-25T09:10:10;5.30;82.20
51801;DHT22;37855;53.204;6.568;2024-01-25T09:12:37;5.40;82.10
51801;DHT22;37855;53.204;6.568;2024-01-25T09:15:03;5.40;82.10
51801;DHT22;37855;53.204;6.568;2024-01-25T09:17:29;5.50;82.10
51801;DHT22;37855;53.204;6.568;2024-01-25T09:19:54;5.50;82.10
51801;DHT22;37855;53.204;6.568;2024-01-25T09:22:20;5.50;82.10
51801;DHT22;37855;53.204;6.568;2024-01-25T09:24:46;5.60;82.20
51801;DHT22;37855;53.204;6.568;2024-01-25T09:27:15;5.60;82.10
51801;DHT22;37855;53.204;6.568;2024-01-25T09:29:41;5.60;82.00
51801;DHT22;37855;53.204;6.568;2024-01-25T09:32:07;5.70;82.00
51801;DHT22;37855;53.204;6.568;2024-01-25T09:34:38;5.70;82.00
51801;DHT22;37855;53.204;6.568;2024-01-25T09:37:04;5.80;82.00
51801;DHT22;37855;53.204;6.568;2024-01-25T09:39:33;5.80;81.90
51801;DHT22;37855;53.204;6.568;2024-01-25T09:42:01;5.80;81.80
51801;DHT22;37855;53.204;6.568;2024-01-25T09:44:28;5.90;81.70
51801;DHT22;37855;53.204;6.568;2024-01-25T09:46:54;5.90;81.70
51801;DHT22;37855;53.204;6.568;2024-01-25T09:49:19;5.90;81.50
51801;DHT22;37855;53.204;6.568;2024-01-25T09:51:45;5.90;81.70
51801;DHT22;37855;53.204;6.568;2024-01-25T09:54:11;5.90;81.70
51801;DHT22;37855;53.204;6.568;2024-01-25T09:56:41;5.90;81.70
51801;DHT22;37855;53.204;6.568;2024-01-25T09:59:07;6.00;81.70
51801;DHT22;37855;53.204;6.568;2024-01-25T10:01:34;6.00;81.70
51801;DHT22;37855;53.204;6.568;2024-01-25T10:04:00;6.00;81.70
51801;DHT22;37855;53.204;6.568;2024-01-25T10:06:25;6.00;81.60
51801;DHT22;37855;53.204;6.568;2024-01-25T10:08:52;6.10;81.60
51801;DHT22;37855;53.204;6.568;2024-01-25T10:11:18;6.20;81.40
51801;DHT22;37855;53.204;6.568;2024-01-25T10:13:46;6.30;81.30
51801;DHT22;37855;53.204;6.568;2024-01-25T10:16:13;6.30;81.40
51801;DHT22;37855;53.204;6.568;2024-01-25T10:18:45;6.30;81.20
51801;DHT22;37855;53.204;6.568;2024-01-25T10:21:11;6.40;81.20
51801;DHT22;37855;53.204;6.568;2024-01-25T10:23:38;6.40;81.10
51801;DHT22;37855;53.204;6.568;2024-01-25T10:26:04;6.40;81.00
51801;DHT22;37855;53.204;6.568;2024-01-25T10:28:29;6.50;80.80
51801;DHT22;37855;53.204;6.568;2024-01-25T10:31:01;6.50;80.80
51801;DHT22;37855;53.204;6.568;2024-01-25T10:33:27;6.50;80.80
51801;DHT22;37855;53.204;6.568;2024-01-25T10:35:57;6.50;80.80
51801;DHT22;37855;53.204;6.568;2024-01-25T10:38:34;6.40;80.80
51801;DHT22;37855;53.204;6.568;2024-01-25T10:41:04;6.50;80.80
51801;DHT22;37855;53.204;6.568;2024-01-25T10:43:31;6.40;80.80
51801;DHT22;37855;53.204;6.568;2024-01-25T10:45:57;6.40;80.70
51801;DHT22;37855;53.204;6.568;2024-01-25T10:48:27;6.40;80.80
51801;DHT22;37855;53.204;6.568;2024-01-25T10:50:54;6.50;80.70
51801;DHT22;37855;53.204;6.568;2024-01-25T10:53:22;6.50;80.60
51801;DHT22;37855;53.204;6.568;2024-01-25T10:55:49;6.50;80.60
51801;DHT22;37855;53.204;6.568;2024-01-25T10:58:16;6.60;80.60
51801;DHT22;37855;53.204;6.568;2024-01-25T11:00:49;6.70;80.60
51801;DHT22;37855;53.204;6.568;2024-01-25T11:03:15;6.70;80.50
51801;DHT22;37855;53.204;6.568;2024-01-25T11:05:40;6.80;80.30
51801;DHT22;37855;53.204;6.568;2024-01-25T11:08:20;6.90;80.10
51801;DHT22;37855;53.204;6.568;2024-01-25T11:10:52;7.00;79.80
51801;DHT22;37855;53.204;6.568;2024-01-25T11:13:29;7.00;79.90
51801;DHT22;37855;53.204;6.568;2024-01-25T11:15:55;7.10;79.70
51801;DHT22;37855;53.204;6.568;2024-01-25T11:18:25;7.10;79.60
51801;DHT22;37855;53.204;6.568;2024-01-25T11:20:51;7.20;79.50
51801;DHT22;37855;53.204;6.568;2024-01-25T11:23:16;7.20;79.40
51801;DHT22;37855;53.204;6.568;2024-01-25T11:25:45;7.20;79.30
51801;DHT22;37855;53.204;6.568;2024-01-25T11:28:14;7.20;79.20
51801;DHT22;37855;53.204;6.568;2024-01-25T11:30:44;7.20;79.20
51801;DHT22;37855;53.204;6.568;2024-01-25T11:33:10;7.30;79.00
51801;DHT22;37855;53.204;6.568;2024-01-25T11:35:37;7.30;79.00
51801;DHT22;37855;53.204;6.568;2024-01-25T11:38:03;7.30;79.00
51801;DHT22;37855;53.204;6.568;2024-01-25T11:40:29;7.30;78.80
51801;DHT22;37855;53.204;6.568;2024-01-25T11:42:59;7.40;78.80
51801;DHT22;37855;53.204;6.568;2024-01-25T11:45:25;7.40;78.60
51801;DHT22;37855;53.204;6.568;2024-01-25T11:47:51;7.30;78.50
51801;DHT22;37855;53.204;6.568;2024-01-25T11:50:17;7.30;78.60
51801;DHT22;37855;53.204;6.568;2024-01-25T11:52:43;7.30;78.70
51801;DHT22;37855;53.204;6.568;2024-01-25T11:55:09;7.30;78.60
51801;DHT22;37855;53.204;6.568;2024-01-25T11:57:40;7.30;78.80
51801;DHT22;37855;53.204;6.568;2024-01-25T12:00:08;7.30;78.70
51801;DHT22;37855;53.204;6.568;2024-01-25T12:02:36;7.30;78.70
51801;DHT22;37855;53.204;6.568;2024-01-25T12:05:06;7.30;78.80
51801;DHT22;37855;53.204;6.568;2024-01-25T12:07:32;7.30;78.80
51801;DHT22;37855;53.204;6.568;2024-01-25T12:10:04;7.40;78.50
51801;DHT22;37855;53.204;6.568;2024-01-25T12:12:31;7.30;78.70
51801;DHT22;37855;53.204;6.568;2024-01-25T12:14:58;7.40;78.60
51801;DHT22;37855;53.204;6.568;2024-01-25T12:17:26;7.40;78.60
51801;DHT22;37855;53.204;6.568;2024-01-25T12:19:57;7.40;78.50
51801;DHT22;37855;53.204;6.568;2024-01-25T12:22:27;7.40;78.40
51801;DHT22;37855;53.204;6.568;2024-01-25T12:24:56;7.50;78.50
51801;DHT22;37855;53.204;6.568;2024-01-25T12:27:22;7.50;78.40
51801;DHT22;37855;53.204;6.568;2024-01-25T12:29:49;7.50;78.30
51801;DHT22;37855;53.204;6.568;2024-01-25T12:32:16;7.60;78.30
51801;DHT22;37855;53.204;6.568;2024-01-25T12:34:42;7.60;78.10
51801;DHT22;37855;53.204;6.568;2024-01-25T12:37:09;7.60;78.20
51801;DHT22;37855;53.204;6.568;2024-01-25T12:39:34;7.70;78.20
51801;DHT22;37855;53.204;6.568;2024-01-25T12:42:00;7.70;78.00
51801;DHT22;37855;53.204;6.568;2024-01-25T12:44:26;7.70;77.60
51801;DHT22;37855;53.204;6.568;2024-01-25T12:46:51;7.80;77.70
51801;DHT22;37855;53.204;6.568;2024-01-25T12:49:18;7.80;77.30
51801;DHT22;37855;53.204;6.568;2024-01-25T12:51:43;7.80;77.60
51801;DHT22;37855;53.204;6.568;2024-01-25T12:54:09;7.90;77.50
51801;DHT22;37855;53.204;6.568;2024-01-25T12:56:35;7.90;77.20
51801;DHT22;37855;53.204;6.568;2024-01-25T12:59:01;7.90;76.50
51801;DHT22;37855;53.204;6.568;2024-01-25T13:01:27;7.80;76.80
51801;DHT22;37855;53.204;6.568;2024-01-25T13:03:52;7.80;76.60
51801;DHT22;37855;53.204;6.568;2024-01-25T13:06:18;7.80;76.80
51801;DHT22;37855;53.204;6.568;2024-01-25T13:08:44;7.80;76.90
51801;DHT22;37855;53.204;6.568;2024-01-25T13:11:11;7.90;76.90
51801;DHT22;37855;53.204;6.568;2024-01-25T13:13:37;7.90;76.80
51801;DHT22;37855;53.204;6.568;2024-01-25T13:16:05;7.90;76.90
51801;DHT22;37855;53.204;6.568;2024-01-25T13:18:34;7.90;76.90
51801;DHT22;37855;53.204;6.568;2024-01-25T13:20:59;7.90;76.70
51801;DHT22;37855;53.204;6.568;2024-01-25T13:23:25;7.90;76.40
51801;DHT22;37855;53.204;6.568;2024-01-25T13:25:50;7.90;75.90
51801;DHT22;37855;53.204;6.568;2024-01-25T13:28:16;7.90;76.00
51801;DHT22;37855;53.204;6.568;2024-01-25T13:30:41;7.90;76.30
51801;DHT22;37855;53.204;6.568;2024-01-25T13:33:07;7.90;76.40
51801;DHT22;37855;53.204;6.568;2024-01-25T13:35:33;7.90;76.40
51801;DHT22;37855;53.204;6.568;2024-01-25T13:37:59;7.90;76.40
51801;DHT22;37855;53.204;6.568;2024-01-25T13:40:27;8.00;76.50
51801;DHT22;37855;53.204;6.568;2024-01-25T13:42:53;8.00;76.40
51801;DHT22;37855;53.204;6.568;2024-01-25T13:45:21;8.00;76.30
51801;DHT22;37855;53.204;6.568;2024-01-25T13:47:47;8.00;76.20
51801;DHT22;37855;53.204;6.568;2024-01-25T13:50:13;8.00;76.30
51801;DHT22;37855;53.204;6.568;2024-01-25T13:52:38;8.00;76.20
51801;DHT22;37855;53.204;6.568;2024-01-25T13:55:04;8.00;75.90
51801;DHT22;37855;53.204;6.568;2024-01-25T13:57:30;8.00;76.00
51801;DHT22;37855;53.204;6.568;2024-01-25T13:59:58;8.00;76.00
51801;DHT22;37855;53.204;6.568;2024-01-25T14:02:27;8.00;75.90
51801;DHT22;37855;53.204;6.568;2024-01-25T14:04:55;8.10;75.80
51801;DHT22;37855;53.204;6.568;2024-01-25T14:07:21;8.00;75.70
51801;DHT22;37855;53.204;6.568;2024-01-25T14:09:48;8.10;75.90
51801;DHT22;37855;53.204;6.568;2024-01-25T14:12:14;8.10;75.80
51801;DHT22;37855;53.204;6.568;2024-01-25T14:14:41;8.10;75.80
51801;DHT22;37855;53.204;6.568;2024-01-25T14:17:09;8.10;75.70
51801;DHT22;37855;53.204;6.568;2024-01-25T14:19:36;8.10;75.70
51801;DHT22;37855;53.204;6.568;2024-01-25T14:22:01;8.10;75.60
51801;DHT22;37855;53.204;6.568;2024-01-25T14:24:27;8.00;75.70
51801;DHT22;37855;53.204;6.568;2024-01-25T14:26:53;8.00;75.70
51801;DHT22;37855;53.204;6.568;2024-01-25T14:29:18;8.00;75.80
51801;DHT22;37855;53.204;6.568;2024-01-25T14:31:44;8.00;75.90
51801;DHT22;37855;53.204;6.568;2024-01-25T14:34:10;7.90;76.00
51801;DHT22;37855;53.204;6.568;2024-01-25T14:36:38;7.90;75.90
51801;DHT22;37855;53.204;6.568;2024-01-25T14:39:04;7.90;75.90
51801;DHT22;37855;53.204;6.568;2024-01-25T14:41:30;7.80;76.00
51801;DHT22;37855;53.204;6.568;2024-01-25T14:43:56;7.80;75.80
51801;DHT22;37855;53.204;6.568;2024-01-25T14:46:22;7.80;76.00
51801;DHT22;37855;53.204;6.568;2024-01-25T14:48:49;7.70;76.10
51801;DHT22;37855;53.204;6.568;2024-01-25T14:51:14;7.70;75.90
51801;DHT22;37855;53.204;6.568;2024-01-25T14:53:40;7.60;75.80
51801;DHT22;37855;53.204;6.568;2024-01-25T14:56:08;7.60;76.00
51801;DHT22;37855;53.204;6.568;2024-01-25T14:58:37;7.60;76.00
51801;DHT22;37855;53.204;6.568;2024-01-25T15:01:03;7.50;76.00
51801;DHT22;37855;53.204;6.568;2024-01-25T15:03:29;7.50;76.10
51801;DHT22;37855;53.204;6.568;2024-01-25T15:05:56;7.50;76.20
51801;DHT22;37855;53.204;6.568;2024-01-25T15:08:22;7.40;76.30
51801;DHT22;37855;53.204;6.568;2024-01-25T15:10:47;7.40;76.40
51801;DHT22;37855;53.204;6.568;2024-01-25T15:13:13;7.40;76.40
51801;DHT22;37855;53.204;6.568;2024-01-25T15:15:39;7.40;76.50
51801;DHT22;37855;53.204;6.568;2024-01-25T15:18:04;7.40;76.50
51801;DHT22;37855;53.204;6.568;2024-01-25T15:20:30;7.30;76.60
51801;DHT22;37855;53.204;6.568;2024-01-25T15:22:59;7.30;76.70
51801;DHT22;37855;53.204;6.568;2024-01-25T15:25:30;7.30;76.80
51801;DHT22;37855;53.204;6.568;2024-01-25T15:27:56;7.30;76.80
51801;DHT22;37855;53.204;6.568;2024-01-25T15:30:21;7.30;76.90
51801;DHT22;37855;53.204;6.568;2024-01-25T15:32:47;7.30;76.90
51801;DHT22;37855;53.204;6.568;2024-01-25T15:35:15;7.20;77.00
51801;DHT22;37855;53.204;6.568;2024-01-25T15:37:41;7.20;77.10
51801;DHT22;37855;53.204;6.568;2024-01-25T15:40:08;7.20;77.20